createdAt,value
2019-01-30T00:01:38.761Z,9.87
2019-01-30T00:04:08.102Z,8.70
2019-01-30T00:06:37.434Z,11.03
2019-01-30T00:09:09.667Z,8.30
2019-01-30T00:11:39.384Z,8.90
2019-01-30T00:14:08.835Z,9.73
2019-01-30T00:16:41.114Z,9.23
2019-01-30T00:19:10.545Z,9.43
2019-01-30T00:21:43.256Z,8.97
2019-01-30T00:24:12.509Z,10.03
2019-01-30T00:26:41.839Z,10.97
2019-01-30T00:29:11.082Z,10.15
2019-01-30T00:31:40.416Z,9.00
2019-01-30T00:36:44.892Z,9.53
2019-01-30T00:39:14.162Z,7.70
2019-01-30T00:41:43.493Z,9.13
2019-01-30T00:44:12.742Z,9.63
2019-01-30T00:46:42.002Z,10.40
2019-01-30T00:49:11.334Z,7.90
2019-01-30T00:51:43.295Z,9.20
2019-01-30T00:54:12.224Z,7.33
2019-01-30T00:56:40.938Z,8.77
2019-01-30T00:59:09.659Z,7.57
2019-01-30T01:01:38.386Z,9.60
2019-01-30T01:04:07.222Z,8.43
2019-01-30T01:06:35.927Z,8.33
2019-01-30T01:09:08.052Z,10.03
2019-01-30T01:11:36.790Z,10.83
2019-01-30T01:14:05.493Z,8.07
2019-01-30T01:16:34.195Z,9.00
2019-01-30T01:19:02.905Z,9.80
2019-01-30T01:21:31.608Z,9.57
2019-01-30T01:24:00.327Z,8.43
2019-01-30T01:26:29.022Z,8.77
2019-01-30T01:28:57.726Z,8.87
2019-01-30T01:31:26.482Z,7.40
2019-01-30T01:33:55.196Z,10.27
2019-01-30T01:36:23.929Z,8.43
2019-01-30T01:38:52.623Z,8.47
2019-01-30T01:41:21.297Z,6.90
2019-01-30T01:43:50.036Z,7.40
2019-01-30T01:46:18.716Z,9.43
2019-01-30T01:48:49.869Z,7.50
2019-01-30T01:51:18.589Z,9.50
2019-01-30T01:53:47.290Z,7.77
2019-01-30T01:56:15.989Z,7.23
2019-01-30T01:58:44.714Z,6.43
2019-01-30T02:01:13.390Z,7.53
2019-01-30T02:03:42.101Z,8.50
2019-01-30T02:06:10.818Z,7.40
2019-01-30T02:08:39.497Z,7.07
2019-01-30T02:11:08.210Z,7.13
2019-01-30T02:13:36.917Z,7.70
2019-01-30T02:16:05.699Z,7.50
2019-01-30T02:18:34.390Z,8.83
2019-01-30T02:21:03.254Z,5.27
2019-01-30T02:23:31.936Z,6.43
2019-01-30T02:26:00.703Z,8.20
2019-01-30T02:28:29.622Z,7.00
2019-01-30T02:30:58.332Z,6.90
2019-01-30T02:33:27.076Z,8.53
2019-01-30T02:35:55.776Z,6.80
2019-01-30T02:38:24.463Z,6.37
2019-01-30T02:40:53.175Z,9.10
2019-01-30T02:43:21.873Z,6.00
2019-01-30T02:45:50.546Z,9.03
2019-01-30T02:48:19.299Z,6.97
2019-01-30T02:50:48.069Z,6.30
2019-01-30T02:53:16.778Z,6.23
2019-01-30T02:55:45.494Z,7.87
2019-01-30T02:58:14.191Z,9.20
2019-01-30T03:00:42.909Z,10.07
2019-01-30T03:03:11.702Z,6.13
2019-01-30T03:05:40.401Z,6.07
2019-01-30T03:08:09.111Z,6.17
2019-01-30T03:10:37.787Z,6.67
2019-01-30T03:13:06.771Z,6.73
2019-01-30T03:15:35.473Z,6.13
2019-01-30T03:18:04.149Z,9.80
2019-01-30T03:20:32.878Z,6.53
2019-01-30T03:23:01.594Z,6.47
2019-01-30T03:25:30.292Z,6.67
2019-01-30T03:27:59.017Z,6.60
2019-01-30T03:30:28.840Z,7.00
2019-01-30T03:32:57.587Z,6.93
2019-01-30T03:35:26.275Z,5.90
2019-01-30T03:37:54.985Z,9.33
2019-01-30T03:40:23.889Z,6.87
2019-01-30T03:42:52.613Z,6.30
2019-01-30T03:45:21.814Z,6.50
2019-01-30T03:47:50.608Z,6.20
2019-01-30T03:50:19.327Z,6.07
2019-01-30T03:52:48.018Z,5.20
2019-01-30T03:55:17.075Z,8.27
2019-01-30T03:57:45.863Z,6.40
2019-01-30T04:00:18.804Z,7.17
2019-01-30T04:02:47.534Z,5.57
2019-01-30T04:05:16.287Z,6.97
2019-01-30T04:07:45.043Z,6.23
2019-01-30T04:10:15.006Z,6.33
2019-01-30T04:12:43.761Z,5.83
2019-01-30T04:15:12.573Z,7.10
2019-01-30T04:17:41.313Z,8.57
2019-01-30T04:20:10.535Z,7.63
2019-01-30T04:22:39.251Z,6.17
2019-01-30T04:25:08.540Z,6.53
2019-01-30T04:27:37.288Z,8.10
2019-01-30T04:30:07.270Z,8.07
2019-01-30T04:32:36.002Z,6.60
2019-01-30T04:35:05.316Z,7.55
2019-01-30T04:37:34.037Z,8.00
2019-01-30T04:40:02.771Z,6.63
2019-01-30T04:42:31.491Z,7.00
2019-01-30T04:45:00.293Z,6.80
2019-01-30T04:47:29.043Z,7.07
2019-01-30T04:49:57.783Z,6.73
2019-01-30T04:52:26.522Z,6.20
2019-01-30T04:54:55.223Z,6.93
2019-01-30T04:57:23.948Z,6.60
2019-01-30T04:59:52.669Z,8.43
2019-01-30T05:02:21.429Z,6.37
2019-01-30T05:04:50.124Z,10.20
2019-01-30T05:07:18.992Z,5.30
2019-01-30T05:09:47.727Z,6.57
2019-01-30T05:12:16.419Z,7.83
2019-01-30T05:14:45.167Z,8.53
2019-01-30T05:17:13.874Z,8.73
2019-01-30T05:19:42.613Z,5.47
2019-01-30T05:22:11.369Z,5.83
2019-01-30T05:24:40.089Z,7.63
2019-01-30T05:27:08.933Z,6.07
2019-01-30T05:29:37.747Z,5.67
2019-01-30T05:32:06.499Z,4.83
2019-01-30T05:34:35.228Z,7.50
2019-01-30T05:37:03.959Z,5.83
2019-01-30T05:39:32.683Z,8.07
2019-01-30T05:42:01.440Z,6.07
2019-01-30T05:44:30.199Z,7.13
2019-01-30T05:46:58.929Z,8.70
2019-01-30T05:49:31.046Z,6.27
2019-01-30T05:52:00.042Z,6.57
2019-01-30T05:54:28.744Z,5.73
2019-01-30T05:56:57.459Z,5.97
2019-01-30T05:59:26.257Z,7.83
2019-01-30T06:01:55.016Z,6.17
2019-01-30T06:04:23.716Z,6.07
2019-01-30T06:06:52.462Z,8.53
2019-01-30T06:09:21.198Z,5.43
2019-01-30T06:11:49.986Z,8.67
2019-01-30T06:14:21.802Z,5.47
2019-01-30T06:16:50.557Z,6.33
2019-01-30T06:19:19.330Z,6.77
2019-01-30T06:21:48.026Z,7.67
2019-01-30T06:24:16.750Z,6.40
2019-01-30T06:26:45.511Z,8.00
2019-01-30T06:29:16.867Z,7.40
2019-01-30T06:31:45.600Z,9.53
2019-01-30T06:34:14.382Z,11.07
2019-01-30T06:36:43.220Z,8.73
2019-01-30T06:39:11.935Z,8.87
2019-01-30T06:41:40.697Z,7.53
2019-01-30T06:44:09.546Z,9.33
2019-01-30T06:46:38.291Z,9.70
2019-01-30T06:49:07.299Z,7.77
2019-01-30T06:51:36.079Z,11.10
2019-01-30T06:54:04.901Z,11.53
2019-01-30T06:56:33.723Z,8.80
2019-01-30T06:59:02.538Z,10.17
2019-01-30T07:01:31.259Z,8.77
2019-01-30T07:04:00.078Z,8.60
2019-01-30T07:06:28.858Z,10.87
2019-01-30T07:08:57.703Z,10.77
2019-01-30T07:11:26.524Z,10.67
2019-01-30T07:13:55.241Z,9.20
2019-01-30T07:16:24.094Z,11.53
2019-01-30T07:18:52.844Z,9.50
2019-01-30T07:21:21.579Z,10.00
2019-01-30T07:23:50.315Z,9.03
2019-01-30T07:26:19.372Z,10.20
2019-01-30T07:28:48.079Z,11.83
2019-01-30T07:31:19.207Z,10.40
2019-01-30T07:33:47.230Z,12.30
2019-01-30T07:36:16.058Z,11.13
2019-01-30T07:38:44.759Z,10.53
2019-01-30T07:41:13.467Z,10.23
2019-01-30T07:43:42.283Z,13.10
2019-01-30T07:46:11.007Z,11.27
2019-01-30T07:48:39.724Z,11.90
2019-01-30T07:51:08.486Z,10.93
2019-01-30T07:53:37.199Z,11.63
2019-01-30T07:56:05.892Z,16.07
2019-01-30T07:58:34.709Z,12.60
2019-01-30T08:01:03.435Z,11.30
2019-01-30T08:03:32.191Z,10.37
2019-01-30T08:06:00.915Z,11.77
2019-01-30T08:08:29.765Z,10.53
2019-01-30T08:10:58.489Z,13.03
2019-01-30T08:13:27.250Z,12.67
2019-01-30T08:15:55.988Z,11.40
2019-01-30T08:18:24.728Z,12.93
2019-01-30T08:20:53.456Z,12.47
2019-01-30T08:23:22.478Z,11.10
2019-01-30T08:25:51.721Z,12.00
2019-01-30T08:28:20.695Z,10.50
2019-01-30T08:30:49.759Z,11.83
2019-01-30T08:33:21.523Z,10.70
2019-01-30T08:35:49.570Z,10.87
2019-01-30T08:38:18.439Z,12.27
2019-01-30T08:40:47.334Z,12.97
2019-01-30T08:43:16.154Z,11.73
2019-01-30T08:45:44.927Z,10.40
2019-01-30T08:48:13.647Z,11.77
2019-01-30T08:50:42.399Z,11.70
2019-01-30T08:53:11.131Z,12.30
2019-01-30T08:55:39.902Z,11.60
2019-01-30T08:58:08.606Z,10.83
2019-01-30T09:00:37.349Z,11.27
2019-01-30T09:03:14.596Z,11.13
2019-01-30T09:05:36.645Z,11.27
2019-01-30T09:08:05.597Z,11.57
2019-01-30T09:10:34.360Z,14.13
2019-01-30T09:13:03.073Z,13.03
2019-01-30T09:15:31.840Z,11.50
2019-01-30T09:18:00.641Z,10.70
2019-01-30T09:20:29.470Z,11.10
2019-01-30T09:22:58.888Z,10.73
2019-01-30T09:25:28.704Z,13.90
2019-01-30T09:27:57.960Z,11.00
2019-01-30T09:30:27.881Z,11.00
2019-01-30T09:32:57.622Z,14.13
2019-01-30T09:35:26.439Z,11.50
2019-01-30T09:37:55.588Z,10.37
2019-01-30T09:40:24.681Z,11.80
2019-01-30T09:42:53.550Z,11.13
2019-01-30T09:45:22.799Z,11.07
2019-01-30T09:47:51.579Z,11.10
2019-01-30T09:50:20.406Z,13.57
2019-01-30T09:52:51.178Z,12.37
2019-01-30T09:55:19.928Z,13.70
2019-01-30T09:57:48.822Z,12.37
2019-01-30T10:00:25.698Z,13.00
2019-01-30T10:02:54.430Z,13.67
2019-01-30T10:05:23.201Z,13.23
2019-01-30T10:07:51.938Z,12.00
2019-01-30T10:10:22.057Z,12.47
2019-01-30T10:12:50.798Z,12.50
2019-01-30T10:15:20.180Z,13.03
2019-01-30T10:17:48.974Z,13.83
2019-01-30T10:20:19.014Z,12.13
2019-01-30T10:22:47.817Z,12.10
2019-01-30T10:25:16.659Z,12.53
2019-01-30T10:27:55.871Z,12.13
2019-01-30T10:30:25.920Z,12.87
2019-01-30T10:32:54.649Z,13.27
2019-01-30T10:35:23.519Z,18.47
2019-01-30T10:37:52.328Z,14.33
2019-01-30T10:40:21.115Z,15.47
2019-01-30T10:42:49.839Z,14.33
2019-01-30T10:45:18.774Z,14.03
2019-01-30T10:47:47.516Z,17.20
2019-01-30T10:50:17.333Z,18.17
2019-01-30T10:52:46.097Z,16.83
2019-01-30T10:55:16.182Z,16.23
2019-01-30T10:57:44.940Z,16.30
2019-01-30T11:00:16.123Z,16.33
2019-01-30T11:02:46.434Z,16.10
2019-01-30T11:05:16.027Z,17.80
2019-01-30T11:07:44.776Z,15.20
2019-01-30T11:10:14.178Z,14.67
2019-01-30T11:12:43.104Z,17.67
2019-01-30T11:15:13.121Z,18.10
2019-01-30T11:17:41.886Z,17.63
2019-01-30T11:20:11.672Z,17.03
2019-01-30T11:22:40.393Z,19.27
2019-01-30T11:25:11.106Z,15.50
2019-01-30T11:27:39.866Z,14.43
2019-01-30T11:30:09.135Z,19.43
2019-01-30T11:32:37.926Z,16.63
2019-01-30T11:35:06.724Z,14.90
2019-01-30T11:37:35.519Z,16.87
2019-01-30T11:40:05.292Z,17.67
2019-01-30T11:42:34.028Z,18.03
2019-01-30T11:45:02.811Z,18.53
2019-01-30T11:47:31.550Z,15.13
2019-01-30T11:50:00.279Z,19.50
2019-01-30T11:52:29.068Z,16.37
2019-01-30T11:54:57.831Z,16.17
2019-01-30T11:57:26.659Z,17.17
2019-01-30T11:59:55.539Z,16.15
2019-01-30T12:02:24.283Z,17.00
2019-01-30T12:04:53.108Z,15.97
2019-01-30T12:07:21.850Z,18.13
2019-01-30T12:09:50.630Z,18.13
2019-01-30T12:12:19.618Z,18.63
2019-01-30T12:14:48.544Z,15.47
2019-01-30T12:17:17.675Z,16.17
2019-01-30T12:19:46.725Z,18.83
2019-01-30T12:22:15.710Z,16.57
2019-01-30T12:24:44.489Z,19.03
2019-01-30T12:27:13.631Z,19.67
2019-01-30T12:29:42.480Z,19.43
2019-01-30T12:32:11.264Z,18.10
2019-01-30T12:34:40.173Z,14.80
2019-01-30T12:37:10.491Z,16.97
2019-01-30T12:39:39.302Z,18.12
2019-01-30T12:42:08.227Z,17.03
2019-01-30T12:44:39.806Z,17.20
2019-01-30T12:47:19.847Z,16.20
2019-01-30T12:49:43.686Z,19.27
2019-01-30T12:52:12.516Z,16.40
2019-01-30T12:54:41.770Z,15.50
2019-01-30T12:57:10.588Z,14.70
2019-01-30T13:02:10.241Z,17.33
2019-01-30T13:04:39.213Z,14.00
2019-01-30T13:07:08.081Z,16.67
2019-01-30T13:09:38.958Z,16.93
2019-01-30T13:12:07.753Z,16.67
2019-01-30T13:14:36.502Z,18.07
2019-01-30T13:17:05.375Z,17.53
2019-01-30T13:19:34.256Z,18.57
2019-01-30T13:22:03.125Z,19.70
2019-01-30T13:24:32.036Z,20.00
2019-01-30T13:27:01.047Z,15.83
2019-01-30T13:29:29.950Z,17.37
2019-01-30T13:31:58.689Z,19.87
2019-01-30T13:34:27.533Z,16.77
2019-01-30T13:36:56.250Z,16.20
2019-01-30T13:39:25.016Z,15.77
2019-01-30T13:41:53.795Z,18.57
2019-01-30T13:44:22.833Z,16.23
2019-01-30T13:46:51.559Z,14.43
2019-01-30T13:49:20.327Z,14.97
2019-01-30T13:51:49.201Z,12.77
2019-01-30T13:54:18.090Z,18.37
2019-01-30T13:56:46.877Z,14.53
2019-01-30T13:59:15.667Z,14.50
2019-01-30T14:01:44.519Z,15.23
2019-01-30T14:04:13.349Z,15.17
2019-01-30T14:06:42.214Z,15.27
2019-01-30T14:09:11.277Z,18.17
2019-01-30T14:11:40.116Z,16.33
2019-01-30T14:14:08.934Z,16.83
2019-01-30T14:16:37.751Z,15.43
2019-01-30T14:19:06.573Z,20.90
2019-01-30T14:21:35.389Z,16.93
2019-01-30T14:24:04.253Z,16.83
2019-01-30T14:26:52.507Z,16.20
2019-01-30T14:29:21.395Z,17.67
2019-01-30T14:31:50.131Z,15.87
2019-01-30T14:34:18.953Z,17.20
2019-01-30T14:36:47.693Z,17.57
2019-01-30T14:39:16.507Z,17.30
2019-01-30T14:41:45.343Z,19.70
2019-01-30T14:44:14.195Z,19.17
2019-01-30T14:46:43.035Z,16.10
2019-01-30T14:49:11.842Z,15.00
2019-01-30T14:51:40.622Z,14.63
2019-01-30T14:54:09.370Z,16.17
2019-01-30T14:56:38.176Z,15.87
2019-01-30T14:59:06.973Z,14.90
2019-01-30T15:01:36.083Z,15.30
2019-01-30T15:04:04.959Z,14.67
2019-01-30T15:06:33.722Z,16.93
2019-01-30T15:09:03.053Z,16.30
2019-01-30T15:11:31.848Z,15.33
2019-01-30T15:14:00.631Z,14.70
2019-01-30T15:16:29.404Z,16.47
2019-01-30T15:18:58.216Z,25.47
2019-01-30T15:21:26.992Z,23.40
2019-01-30T15:23:55.965Z,18.20
2019-01-30T15:26:25.890Z,18.23
2019-01-30T15:28:55.015Z,16.33
2019-01-30T15:31:23.814Z,18.23
2019-01-30T15:33:52.600Z,16.20
2019-01-30T15:36:21.529Z,20.33
2019-01-30T15:38:50.371Z,18.27
2019-01-30T15:41:19.118Z,18.47
2019-01-30T15:43:47.893Z,20.40
2019-01-30T15:46:17.142Z,21.25
2019-01-30T15:48:45.899Z,21.77
2019-01-30T15:51:14.708Z,20.33
2019-01-30T15:54:07.762Z,22.07
2019-01-30T15:56:36.632Z,24.73
2019-01-30T15:59:06.441Z,24.07
2019-01-30T16:01:39.573Z,23.53
2019-01-30T16:04:10.408Z,22.30
2019-01-30T16:06:38.992Z,23.03
2019-01-30T16:09:08.611Z,25.27
2019-01-30T16:11:37.438Z,26.03
2019-01-30T16:14:06.218Z,28.70
2019-01-30T16:16:35.109Z,26.07
2019-01-30T16:19:03.997Z,28.73
2019-01-30T16:21:32.821Z,28.53
2019-01-30T16:24:01.608Z,29.73
2019-01-30T16:26:30.393Z,30.83
2019-01-30T16:28:59.215Z,30.70
2019-01-30T16:31:28.042Z,31.77
2019-01-30T16:41:21.196Z,30.23
2019-01-30T16:43:49.960Z,32.07
2019-01-30T16:46:18.771Z,32.30
2019-01-30T16:48:47.649Z,31.80
2019-01-30T16:51:16.419Z,33.90
2019-01-30T16:53:45.242Z,33.27
2019-01-30T16:56:14.026Z,31.63
2019-01-30T16:58:42.869Z,37.60
2019-01-30T17:01:11.670Z,30.43
2019-01-30T17:03:40.561Z,34.67
2019-01-30T17:06:09.457Z,33.13
2019-01-30T17:08:38.255Z,34.10
2019-01-30T17:11:07.045Z,32.03
2019-01-30T17:13:35.804Z,33.50
2019-01-30T17:16:07.748Z,33.23
2019-01-30T17:18:40.281Z,35.37
2019-01-30T17:21:09.140Z,31.50
2019-01-30T17:23:37.979Z,32.33
2019-01-30T17:26:08.440Z,27.63
2019-01-30T17:28:37.341Z,29.00
2019-01-30T17:33:52.668Z,26.33
2019-01-30T17:36:25.086Z,24.90
2019-01-30T17:38:54.293Z,29.57
2019-01-30T17:41:23.097Z,26.13
2019-01-30T17:43:57.196Z,28.43
2019-01-30T17:46:45.548Z,27.60
2019-01-30T17:49:14.345Z,25.80
2019-01-30T17:51:43.195Z,32.70
2019-01-30T17:54:12.874Z,27.77
2019-01-30T17:56:41.771Z,28.67
2019-01-30T17:59:17.399Z,30.17
2019-01-30T18:01:50.100Z,25.00
2019-01-30T18:04:18.918Z,24.07
2019-01-30T18:06:47.772Z,22.70
2019-01-30T18:09:16.614Z,23.70
2019-01-30T18:11:45.486Z,24.40
2019-01-30T18:14:14.224Z,26.45
2019-01-30T18:16:43.080Z,27.53
2019-01-30T18:19:11.998Z,25.40
2019-01-30T18:21:41.040Z,23.37
2019-01-30T18:24:09.841Z,24.13
2019-01-30T18:26:38.662Z,23.57
2019-01-30T18:29:07.471Z,21.87
2019-01-30T18:31:36.220Z,22.37
2019-01-30T18:34:05.099Z,23.63
2019-01-30T18:36:40.762Z,22.13
2019-01-30T18:39:06.343Z,23.80
2019-01-30T18:41:35.149Z,25.20
2019-01-30T18:44:04.011Z,25.00
2019-01-30T18:46:35.142Z,22.83
2019-01-30T18:49:04.086Z,23.20
2019-01-30T18:51:33.385Z,21.57
2019-01-30T18:54:02.169Z,25.25
2019-01-30T18:56:30.946Z,22.73
2019-01-30T18:58:59.823Z,21.20
2019-01-30T19:01:28.622Z,20.40
2019-01-30T19:06:25.484Z,20.53
2019-01-30T19:08:54.914Z,24.20
2019-01-30T19:13:51.914Z,20.70
2019-01-30T19:16:20.737Z,23.00
2019-01-30T19:18:49.514Z,19.67
2019-01-30T19:21:18.323Z,18.53
2019-01-30T19:23:47.151Z,15.20
2019-01-30T19:26:15.989Z,14.07
2019-01-30T19:28:44.791Z,12.00
2019-01-30T19:31:13.595Z,12.20
2019-01-30T19:33:42.381Z,11.80
2019-01-30T19:36:11.142Z,11.30
2019-01-30T19:38:39.942Z,12.70
2019-01-30T19:41:08.735Z,12.07
2019-01-30T19:43:37.524Z,11.13
2019-01-30T19:46:06.330Z,10.10
2019-01-30T19:48:35.134Z,10.20
2019-01-30T19:51:04.069Z,9.73
2019-01-30T19:53:32.824Z,9.27
2019-01-30T19:56:00.941Z,9.00
2019-01-30T19:58:29.798Z,9.30
2019-01-30T20:00:58.630Z,9.50
2019-01-30T20:03:31.206Z,9.63
2019-01-30T20:05:59.872Z,10.43
2019-01-30T20:08:28.703Z,8.43
2019-01-30T20:10:57.509Z,8.07
2019-01-30T20:13:26.404Z,8.27
2019-01-30T20:15:55.236Z,7.87
2019-01-30T20:18:24.014Z,7.50
2019-01-30T20:20:52.762Z,8.80
2019-01-30T20:23:21.614Z,7.90
2019-01-30T20:25:50.561Z,8.63
2019-01-30T20:28:19.534Z,7.80
2019-01-30T20:30:48.297Z,9.13
2019-01-30T20:33:17.056Z,6.53
2019-01-30T20:35:48.023Z,8.77
2019-01-30T20:38:16.848Z,7.33
2019-01-30T20:40:45.681Z,10.07
2019-01-30T20:43:14.553Z,8.83
2019-01-30T20:45:43.333Z,8.57
2019-01-30T20:48:12.139Z,7.77
2019-01-30T20:50:40.949Z,11.60
2019-01-30T20:53:09.796Z,8.30
2019-01-30T20:55:38.581Z,8.37
2019-01-30T20:58:07.327Z,8.73
2019-01-30T21:00:37.217Z,7.07
2019-01-30T21:03:06.337Z,9.03
2019-01-30T21:05:35.124Z,9.23
2019-01-30T21:08:04.507Z,8.80
2019-01-30T21:10:34.432Z,11.57
2019-01-30T21:13:03.268Z,14.73
2019-01-30T21:15:32.037Z,14.17
2019-01-30T21:18:00.809Z,12.47
2019-01-30T21:20:29.667Z,13.08
2019-01-30T21:22:58.435Z,9.17
2019-01-30T21:25:27.289Z,7.53
2019-01-30T21:27:56.033Z,7.97
2019-01-30T21:30:25.947Z,8.40
2019-01-30T21:32:54.724Z,8.67
2019-01-30T21:35:23.525Z,7.33
2019-01-30T21:37:52.387Z,7.33
2019-01-30T21:42:49.578Z,8.93
2019-01-30T21:45:19.016Z,10.17
2019-01-30T21:47:47.742Z,7.17
2019-01-30T21:50:16.799Z,9.23
2019-01-30T21:52:45.618Z,9.13
2019-01-30T21:55:15.552Z,7.40
2019-01-30T21:57:44.279Z,6.30
2019-01-30T22:00:14.837Z,8.98
2019-01-30T22:02:43.741Z,7.60
2019-01-30T22:05:12.461Z,8.20
2019-01-30T22:07:41.284Z,6.77
2019-01-30T22:10:11.830Z,7.77
2019-01-30T22:12:40.888Z,6.27
2019-01-30T22:15:10.180Z,5.77
2019-01-30T22:17:38.883Z,8.07
2019-01-30T22:20:09.269Z,7.73
2019-01-30T22:22:37.986Z,4.93
2019-01-30T22:25:07.400Z,6.93
2019-01-30T22:27:36.163Z,6.23
2019-01-30T22:30:06.869Z,6.27
2019-01-30T22:32:35.579Z,7.80
2019-01-30T22:35:04.926Z,7.17
2019-01-30T22:37:33.630Z,6.47
2019-01-30T22:40:02.401Z,7.97
2019-01-30T22:42:31.121Z,7.60
2019-01-30T22:47:27.887Z,9.23
2019-01-30T22:49:56.614Z,6.00
2019-01-30T22:52:25.334Z,7.27
2019-01-30T22:54:54.099Z,7.53
2019-01-30T22:57:22.824Z,7.47
2019-01-30T23:02:20.558Z,7.90
2019-01-30T23:08:04.274Z,11.13
2019-01-30T23:10:52.079Z,5.63
2019-01-30T23:13:52.214Z,8.07
2019-01-30T23:16:43.063Z,6.47
2019-01-30T23:19:30.966Z,6.63
2019-01-30T23:22:18.811Z,6.90
2019-01-30T23:25:15.937Z,8.83
2019-01-30T23:28:03.750Z,5.67
2019-01-30T23:30:50.406Z,4.97
2019-01-30T23:33:40.977Z,4.83
2019-01-30T23:36:16.654Z,4.33
2019-01-30T23:39:05.258Z,8.40
2019-01-30T23:41:40.826Z,5.63
2019-01-30T23:44:15.538Z,6.70
2019-01-30T23:47:02.473Z,7.63
2019-01-30T23:49:49.205Z,7.97
2019-01-30T23:52:25.653Z,6.67
2019-01-30T23:55:01.053Z,6.57
2019-01-30T23:58:00.761Z,6.53
